sensor_id;sensor_type;location;lat;lon;timestamp;temperature;humidity
56424;DHT22;42329;43.516;3.684;2022-08-19T00:01:37;22.60;90.70
56424;DHT22;42329;43.516;3.684;2022-08-19T00:04:06;22.60;90.90
56424;DHT22;42329;43.516;3.684;2022-08-19T00:06:33;22.60;90.90
56424;DHT22;42329;43.516;3.684;2022-08-19T00:09:02;22.60;90.80
56424;DHT22;42329;43.516;3.684;2022-08-19T00:11:30;22.70;90.90
56424;DHT22;42329;43.516;3.684;2022-08-19T00:13:57;22.70;90.80
56424;DHT22;42329;43.516;3.684;2022-08-19T00:16:24;22.70;90.80
56424;DHT22;42329;43.516;3.684;2022-08-19T00:18:51;22.70;90.80
56424;DHT22;42329;43.516;3.684;2022-08-19T00:21:18;22.70;91.00
56424;DHT22;42329;43.516;3.684;2022-08-19T00:23:45;22.70;90.50
56424;DHT22;42329;43.516;3.684;2022-08-19T00:26:14;22.70;90.70
56424;DHT22;42329;43.516;3.684;2022-08-19T00:28:41;22.70;90.60
56424;DHT22;42329;43.516;3.684;2022-08-19T00:31:08;22.70;90.50
56424;DHT22;42329;43.516;3.684;2022-08-19T00:33:35;22.70;90.80
56424;DHT22;42329;43.516;3.684;2022-08-19T00:36:03;22.70;90.90
56424;DHT22;42329;43.516;3.684;2022-08-19T00:38:31;22.70;90.80
56424;DHT22;42329;43.516;3.684;2022-08-19T00:40:59;22.70;91.10
56424;DHT22;42329;43.516;3.684;2022-08-19T00:43:27;22.70;91.10
56424;DHT22;42329;43.516;3.684;2022-08-19T00:45:54;22.60;91.20
56424;DHT22;42329;43.516;3.684;2022-08-19T00:48:21;22.60;91.60
56424;DHT22;42329;43.516;3.684;2022-08-19T00:50:49;22.60;91.80
56424;DHT22;42329;43.516;3.684;2022-08-19T00:53:18;22.50;92.00
56424;DHT22;42329;43.516;3.684;2022-08-19T00:55:46;22.50;92.30
56424;DHT22;42329;43.516;3.684;2022-08-19T00:58:15;22.50;92.20
56424;DHT22;42329;43.516;3.684;2022-08-19T01:00:45;22.40;92.50
56424;DHT22;42329;43.516;3.684;2022-08-19T01:03:13;22.40;92.70
56424;DHT22;42329;43.516;3.684;2022-08-19T01:05:41;22.30;92.70
56424;DHT22;42329;43.516;3.684;2022-08-19T01:08:08;22.30;93.00
56424;DHT22;42329;43.516;3.684;2022-08-19T01:10:37;22.20;93.00
56424;DHT22;42329;43.516;3.684;2022-08-19T01:13:06;22.20;93.20
56424;DHT22;42329;43.516;3.684;2022-08-19T01:15:34;22.20;93.10
56424;DHT22;42329;43.516;3.684;2022-08-19T01:18:04;22.20;93.10
56424;DHT22;42329;43.516;3.684;2022-08-19T01:20:32;22.20;93.10
56424;DHT22;42329;43.516;3.684;2022-08-19T01:23:01;22.20;93.00
56424;DHT22;42329;43.516;3.684;2022-08-19T01:25:29;22.10;93.10
56424;DHT22;42329;43.516;3.684;2022-08-19T01:27:56;22.10;93.10
56424;DHT22;42329;43.516;3.684;2022-08-19T01:30:24;22.10;93.10
56424;DHT22;42329;43.516;3.684;2022-08-19T01:32:51;22.10;93.10
56424;DHT22;42329;43.516;3.684;2022-08-19T01:35:18;22.10;92.80
56424;DHT22;42329;43.516;3.684;2022-08-19T01:37:46;22.10;92.80
56424;DHT22;42329;43.516;3.684;2022-08-19T01:40:16;22.10;92.70
56424;DHT22;42329;43.516;3.684;2022-08-19T01:42:45;22.10;92.50
56424;DHT22;42329;43.516;3.684;2022-08-19T01:45:13;22.10;92.20
56424;DHT22;42329;43.516;3.684;2022-08-19T01:47:40;22.10;92.00
56424;DHT22;42329;43.516;3.684;2022-08-19T01:50:08;22.10;92.00
56424;DHT22;42329;43.516;3.684;2022-08-19T01:52:36;22.10;91.70
56424;DHT22;42329;43.516;3.684;2022-08-19T01:55:03;22.10;91.80
56424;DHT22;42329;43.516;3.684;2022-08-19T01:57:32;22.10;91.60
56424;DHT22;42329;43.516;3.684;2022-08-19T01:59:59;22.10;91.70
56424;DHT22;42329;43.516;3.684;2022-08-19T02:02:27;22.10;91.80
56424;DHT22;42329;43.516;3.684;2022-08-19T02:04:54;22.10;91.50
56424;DHT22;42329;43.516;3.684;2022-08-19T02:07:21;22.10;91.90
56424;DHT22;42329;43.516;3.684;2022-08-19T02:09:48;22.10;91.60
56424;DHT22;42329;43.516;3.684;2022-08-19T02:12:15;22.10;91.50
56424;DHT22;42329;43.516;3.684;2022-08-19T02:14:44;22.10;91.40
56424;DHT22;42329;43.516;3.684;2022-08-19T02:17:11;22.10;91.60
56424;DHT22;42329;43.516;3.684;2022-08-19T02:19:38;22.10;91.50
56424;DHT22;42329;43.516;3.684;2022-08-19T02:22:05;22.00;91.50
56424;DHT22;42329;43.516;3.684;2022-08-19T02:24:32;22.00;91.50
56424;DHT22;42329;43.516;3.684;2022-08-19T02:26:59;22.00;91.60
56424;DHT22;42329;43.516;3.684;2022-08-19T02:29:26;22.00;91.70
56424;DHT22;42329;43.516;3.684;2022-08-19T02:31:55;22.00;91.70
56424;DHT22;42329;43.516;3.684;2022-08-19T02:34:22;22.00;91.50
56424;DHT22;42329;43.516;3.684;2022-08-19T02:36:50;22.00;91.40
56424;DHT22;42329;43.516;3.684;2022-08-19T02:39:17;22.00;91.40
56424;DHT22;42329;43.516;3.684;2022-08-19T02:41:43;22.00;91.60
56424;DHT22;42329;43.516;3.684;2022-08-19T02:44:10;22.00;91.30
56424;DHT22;42329;43.516;3.684;2022-08-19T02:46:37;22.00;91.30
56424;DHT22;42329;43.516;3.684;2022-08-19T02:49:07;22.00;91.40
56424;DHT22;42329;43.516;3.684;2022-08-19T02:51:35;21.90;91.50
56424;DHT22;42329;43.516;3.684;2022-08-19T02:54:03;22.00;91.50
56424;DHT22;42329;43.516;3.684;2022-08-19T02:56:30;22.00;91.50
56424;DHT22;42329;43.516;3.684;2022-08-19T02:58:57;22.00;91.50
56424;DHT22;42329;43.516;3.684;2022-08-19T03:01:25;22.00;91.50
56424;DHT22;42329;43.516;3.684;2022-08-19T03:03:52;21.90;91.50
56424;DHT22;42329;43.516;3.684;2022-08-19T03:06:21;21.90;91.50
56424;DHT22;42329;43.516;3.684;2022-08-19T03:08:48;21.90;91.80
56424;DHT22;42329;43.516;3.684;2022-08-19T03:11:16;21.90;91.70
56424;DHT22;42329;43.516;3.684;2022-08-19T03:13:44;21.90;91.90
56424;DHT22;42329;43.516;3.684;2022-08-19T03:16:11;21.90;91.80
56424;DHT22;42329;43.516;3.684;2022-08-19T03:18:38;21.90;91.90
56424;DHT22;42329;43.516;3.684;2022-08-19T03:21:05;21.90;91.90
56424;DHT22;42329;43.516;3.684;2022-08-19T03:23:34;21.90;92.00
56424;DHT22;42329;43.516;3.684;2022-08-19T03:26:03;21.90;92.10
56424;DHT22;42329;43.516;3.684;2022-08-19T03:28:30;21.80;92.10
56424;DHT22;42329;43.516;3.684;2022-08-19T03:30:57;21.80;92.20
56424;DHT22;42329;43.516;3.684;2022-08-19T03:33:25;21.80;92.20
56424;DHT22;42329;43.516;3.684;2022-08-19T03:36:02;21.80;92.20
56424;DHT22;42329;43.516;3.684;2022-08-19T03:38:30;21.80;92.30
56424;DHT22;42329;43.516;3.684;2022-08-19T03:40:59;21.80;92.30
56424;DHT22;42329;43.516;3.684;2022-08-19T03:43:28;21.80;92.40
56424;DHT22;42329;43.516;3.684;2022-08-19T03:46:03;21.80;92.50
56424;DHT22;42329;43.516;3.684;2022-08-19T03:48:30;21.70;92.60
56424;DHT22;42329;43.516;3.684;2022-08-19T03:50:57;21.70;92.60
56424;DHT22;42329;43.516;3.684;2022-08-19T03:53:25;21.70;92.70
56424;DHT22;42329;43.516;3.684;2022-08-19T03:55:53;21.70;92.60
56424;DHT22;42329;43.516;3.684;2022-08-19T03:58:21;21.70;92.80
56424;DHT22;42329;43.516;3.684;2022-08-19T04:00:49;21.70;92.70
56424;DHT22;42329;43.516;3.684;2022-08-19T04:03:16;21.70;92.80
56424;DHT22;42329;43.516;3.684;2022-08-19T04:05:44;21.70;92.80
56424;DHT22;42329;43.516;3.684;2022-08-19T04:08:11;21.70;93.00
56424;DHT22;42329;43.516;3.684;2022-08-19T04:10:38;21.70;93.00
56424;DHT22;42329;43.516;3.684;2022-08-19T04:13:05;21.70;93.10
56424;DHT22;42329;43.516;3.684;2022-08-19T04:15:38;21.70;93.10
56424;DHT22;42329;43.516;3.684;2022-08-19T04:18:07;21.70;93.10
56424;DHT22;42329;43.516;3.684;2022-08-19T04:20:38;21.60;93.10
56424;DHT22;42329;43.516;3.684;2022-08-19T04:23:05;21.70;93.10
56424;DHT22;42329;43.516;3.684;2022-08-19T04:25:34;21.70;93.10
56424;DHT22;42329;43.516;3.684;2022-08-19T04:28:02;21.60;93.20
56424;DHT22;42329;43.516;3.684;2022-08-19T04:30:29;21.60;93.10
56424;DHT22;42329;43.516;3.684;2022-08-19T04:32:57;21.70;93.20
56424;DHT22;42329;43.516;3.684;2022-08-19T04:35:24;21.60;93.20
56424;DHT22;42329;43.516;3.684;2022-08-19T04:37:51;21.70;93.50
56424;DHT22;42329;43.516;3.684;2022-08-19T04:40:18;21.60;93.00
56424;DHT22;42329;43.516;3.684;2022-08-19T04:43:02;21.70;93.00
56424;DHT22;42329;43.516;3.684;2022-08-19T04:45:29;21.70;93.20
56424;DHT22;42329;43.516;3.684;2022-08-19T04:47:58;21.70;93.00
56424;DHT22;42329;43.516;3.684;2022-08-19T04:50:27;21.70;93.00
56424;DHT22;42329;43.516;3.684;2022-08-19T04:52:54;21.70;93.00
56424;DHT22;42329;43.516;3.684;2022-08-19T04:55:21;21.70;93.00
56424;DHT22;42329;43.516;3.684;2022-08-19T04:57:50;21.70;93.00
56424;DHT22;42329;43.516;3.684;2022-08-19T05:00:17;21.70;93.10
56424;DHT22;42329;43.516;3.684;2022-08-19T05:02:44;21.60;93.10
56424;DHT22;42329;43.516;3.684;2022-08-19T05:05:13;21.70;93.10
56424;DHT22;42329;43.516;3.684;2022-08-19T05:07:40;21.60;93.00
56424;DHT22;42329;43.516;3.684;2022-08-19T05:10:07;21.70;93.10
56424;DHT22;42329;43.516;3.684;2022-08-19T05:12:34;21.70;93.20
56424;DHT22;42329;43.516;3.684;2022-08-19T05:15:07;21.70;93.30
56424;DHT22;42329;43.516;3.684;2022-08-19T05:17:34;21.70;93.20
56424;DHT22;42329;43.516;3.684;2022-08-19T05:20:02;21.70;93.20
56424;DHT22;42329;43.516;3.684;2022-08-19T05:22:48;21.70;93.10
56424;DHT22;42329;43.516;3.684;2022-08-19T05:25:15;21.70;93.10
56424;DHT22;42329;43.516;3.684;2022-08-19T05:27:44;21.70;93.10
56424;DHT22;42329;43.516;3.684;2022-08-19T05:30:11;21.70;93.10
56424;DHT22;42329;43.516;3.684;2022-08-19T05:32:38;21.80;93.30
56424;DHT22;42329;43.516;3.684;2022-08-19T05:35:06;21.80;93.10
56424;DHT22;42329;43.516;3.684;2022-08-19T05:37:33;21.80;93.00
56424;DHT22;42329;43.516;3.684;2022-08-19T05:40:02;21.80;93.10
56424;DHT22;42329;43.516;3.684;2022-08-19T05:42:29;21.80;92.90
56424;DHT22;42329;43.516;3.684;2022-08-19T05:44:56;21.80;92.90
56424;DHT22;42329;43.516;3.684;2022-08-19T05:47:23;21.80;93.00
56424;DHT22;42329;43.516;3.684;2022-08-19T05:49:50;21.80;93.10
56424;DHT22;42329;43.516;3.684;2022-08-19T05:52:17;21.80;93.10
56424;DHT22;42329;43.516;3.684;2022-08-19T05:54:45;21.80;93.00
56424;DHT22;42329;43.516;3.684;2022-08-19T05:57:14;21.80;92.90
56424;DHT22;42329;43.516;3.684;2022-08-19T05:59:41;21.80;92.70
56424;DHT22;42329;43.516;3.684;2022-08-19T06:02:11;21.90;92.60
56424;DHT22;42329;43.516;3.684;2022-08-19T06:04:38;21.90;92.70
56424;DHT22;42329;43.516;3.684;2022-08-19T06:07:08;21.90;92.70
56424;DHT22;42329;43.516;3.684;2022-08-19T06:09:34;21.90;92.40
56424;DHT22;42329;43.516;3.684;2022-08-19T06:12:02;22.00;92.50
56424;DHT22;42329;43.516;3.684;2022-08-19T06:14:31;22.10;92.40
56424;DHT22;42329;43.516;3.684;2022-08-19T06:16:59;22.20;92.40
56424;DHT22;42329;43.516;3.684;2022-08-19T06:19:27;22.20;92.40
56424;DHT22;42329;43.516;3.684;2022-08-19T06:21:55;22.30;92.30
56424;DHT22;42329;43.516;3.684;2022-08-19T06:24:24;22.40;92.20
56424;DHT22;42329;43.516;3.684;2022-08-19T06:26:51;22.40;92.10
56424;DHT22;42329;43.516;3.684;2022-08-19T06:29:20;22.50;92.10
56424;DHT22;42329;43.516;3.684;2022-08-19T06:31:49;22.50;92.00
56424;DHT22;42329;43.516;3.684;2022-08-19T06:34:17;22.60;91.90
56424;DHT22;42329;43.516;3.684;2022-08-19T06:36:46;22.60;91.80
56424;DHT22;42329;43.516;3.684;2022-08-19T06:39:14;22.70;91.90
56424;DHT22;42329;43.516;3.684;2022-08-19T06:41:42;22.70;91.70
56424;DHT22;42329;43.516;3.684;2022-08-19T06:44:09;22.80;91.80
56424;DHT22;42329;43.516;3.684;2022-08-19T06:46:36;22.80;91.70
56424;DHT22;42329;43.516;3.684;2022-08-19T06:49:05;22.90;91.40
56424;DHT22;42329;43.516;3.684;2022-08-19T06:51:35;22.90;91.40
56424;DHT22;42329;43.516;3.684;2022-08-19T06:54:02;23.00;91.20
56424;DHT22;42329;43.516;3.684;2022-08-19T06:56:30;23.10;91.50
56424;DHT22;42329;43.516;3.684;2022-08-19T06:59:00;23.20;91.10
56424;DHT22;42329;43.516;3.684;2022-08-19T07:01:27;23.20;91.20
56424;DHT22;42329;43.516;3.684;2022-08-19T07:03:54;23.30;90.90
56424;DHT22;42329;43.516;3.684;2022-08-19T07:06:23;23.40;90.80
56424;DHT22;42329;43.516;3.684;2022-08-19T07:08:50;23.40;90.60
56424;DHT22;42329;43.516;3.684;2022-08-19T07:11:18;23.40;90.60
56424;DHT22;42329;43.516;3.684;2022-08-19T07:13:46;23.50;90.60
56424;DHT22;42329;43.516;3.684;2022-08-19T07:16:15;23.60;90.40
56424;DHT22;42329;43.516;3.684;2022-08-19T07:18:42;23.70;90.20
56424;DHT22;42329;43.516;3.684;2022-08-19T07:21:10;23.70;90.30
56424;DHT22;42329;43.516;3.684;2022-08-19T07:23:39;23.80;90.30
56424;DHT22;42329;43.516;3.684;2022-08-19T07:26:06;23.90;90.40
56424;DHT22;42329;43.516;3.684;2022-08-19T07:28:33;23.90;90.30
56424;DHT22;42329;43.516;3.684;2022-08-19T07:31:06;24.00;90.20
56424;DHT22;42329;43.516;3.684;2022-08-19T07:33:34;24.10;89.40
56424;DHT22;42329;43.516;3.684;2022-08-19T07:36:02;24.10;89.90
56424;DHT22;42329;43.516;3.684;2022-08-19T07:38:29;24.20;89.00
56424;DHT22;42329;43.516;3.684;2022-08-19T07:40:58;24.20;89.30
56424;DHT22;42329;43.516;3.684;2022-08-19T07:43:26;24.30;88.90
56424;DHT22;42329;43.516;3.684;2022-08-19T07:45:53;24.30;89.10
56424;DHT22;42329;43.516;3.684;2022-08-19T07:48:21;24.40;89.00
56424;DHT22;42329;43.516;3.684;2022-08-19T07:50:50;24.40;88.90
56424;DHT22;42329;43.516;3.684;2022-08-19T07:53:17;24.50;89.10
56424;DHT22;42329;43.516;3.684;2022-08-19T07:55:45;24.50;88.30
56424;DHT22;42329;43.516;3.684;2022-08-19T07:58:14;24.50;88.20
56424;DHT22;42329;43.516;3.684;2022-08-19T08:00:42;24.50;87.90
56424;DHT22;42329;43.516;3.684;2022-08-19T08:03:09;24.60;88.20
56424;DHT22;42329;43.516;3.684;2022-08-19T08:05:36;24.70;87.50
56424;DHT22;42329;43.516;3.684;2022-08-19T08:08:21;24.60;86.70
56424;DHT22;42329;43.516;3.684;2022-08-19T08:11:01;24.70;87.60
56424;DHT22;42329;43.516;3.684;2022-08-19T08:13:30;24.70;87.80
56424;DHT22;42329;43.516;3.684;2022-08-19T08:15:58;24.70;86.60
56424;DHT22;42329;43.516;3.684;2022-08-19T08:18:25;24.70;86.60
56424;DHT22;42329;43.516;3.684;2022-08-19T08:20:52;24.80;86.20
56424;DHT22;42329;43.516;3.684;2022-08-19T08:23:19;24.80;86.40
56424;DHT22;42329;43.516;3.684;2022-08-19T08:25:50;24.80;86.70
56424;DHT22;42329;43.516;3.684;2022-08-19T08:28:18;24.90;86.10
56424;DHT22;42329;43.516;3.684;2022-08-19T08:30:47;24.90;85.90
56424;DHT22;42329;43.516;3.684;2022-08-19T08:33:17;24.90;85.40
56424;DHT22;42329;43.516;3.684;2022-08-19T08:35:44;25.00;86.30
56424;DHT22;42329;43.516;3.684;2022-08-19T08:38:12;25.00;85.90
56424;DHT22;42329;43.516;3.684;2022-08-19T08:40:42;25.10;85.80
56424;DHT22;42329;43.516;3.684;2022-08-19T08:45:57;25.10;84.70
56424;DHT22;42329;43.516;3.684;2022-08-19T08:48:30;25.20;85.60
56424;DHT22;42329;43.516;3.684;2022-08-19T08:50:58;25.30;85.20
56424;DHT22;42329;43.516;3.684;2022-08-19T08:53:27;25.30;85.50
56424;DHT22;42329;43.516;3.684;2022-08-19T08:55:54;25.40;85.40
56424;DHT22;42329;43.516;3.684;2022-08-19T08:58:24;25.50;84.90
56424;DHT22;42329;43.516;3.684;2022-08-19T09:00:53;25.50;84.60
56424;DHT22;42329;43.516;3.684;2022-08-19T09:03:21;25.60;85.50
56424;DHT22;42329;43.516;3.684;2022-08-19T09:05:50;25.70;84.70
56424;DHT22;42329;43.516;3.684;2022-08-19T09:08:22;25.70;84.60
56424;DHT22;42329;43.516;3.684;2022-08-19T09:10:54;25.80;85.30
56424;DHT22;42329;43.516;3.684;2022-08-19T09:13:24;25.90;84.50
56424;DHT22;42329;43.516;3.684;2022-08-19T09:15:56;25.90;84.50
56424;DHT22;42329;43.516;3.684;2022-08-19T09:18:27;25.90;83.10
56424;DHT22;42329;43.516;3.684;2022-08-19T09:21:04;26.00;82.70
56424;DHT22;42329;43.516;3.684;2022-08-19T09:23:33;26.10;83.40
56424;DHT22;42329;43.516;3.684;2022-08-19T09:26:00;26.20;83.90
56424;DHT22;42329;43.516;3.684;2022-08-19T09:28:27;26.20;83.60
56424;DHT22;42329;43.516;3.684;2022-08-19T09:30:54;26.30;83.40
56424;DHT22;42329;43.516;3.684;2022-08-19T09:33:21;26.40;82.70
56424;DHT22;42329;43.516;3.684;2022-08-19T09:35:50;26.50;82.40
56424;DHT22;42329;43.516;3.684;2022-08-19T09:38:28;26.60;80.40
56424;DHT22;42329;43.516;3.684;2022-08-19T09:40:55;26.60;81.00
56424;DHT22;42329;43.516;3.684;2022-08-19T09:43:22;26.60;81.30
56424;DHT22;42329;43.516;3.684;2022-08-19T09:45:52;26.70;82.20
56424;DHT22;42329;43.516;3.684;2022-08-19T09:48:19;26.70;81.10
56424;DHT22;42329;43.516;3.684;2022-08-19T09:50:46;26.80;81.70
56424;DHT22;42329;43.516;3.684;2022-08-19T09:53:15;26.90;82.10
56424;DHT22;42329;43.516;3.684;2022-08-19T09:55:42;27.00;81.00
56424;DHT22;42329;43.516;3.684;2022-08-19T09:58:09;27.10;81.50
56424;DHT22;42329;43.516;3.684;2022-08-19T10:00:36;27.10;80.10
56424;DHT22;42329;43.516;3.684;2022-08-19T10:03:04;27.20;80.50
56424;DHT22;42329;43.516;3.684;2022-08-19T10:05:31;27.30;79.80
56424;DHT22;42329;43.516;3.684;2022-08-19T10:08:19;27.30;79.60
56424;DHT22;42329;43.516;3.684;2022-08-19T10:10:46;27.40;79.70
56424;DHT22;42329;43.516;3.684;2022-08-19T10:13:14;27.50;79.90
56424;DHT22;42329;43.516;3.684;2022-08-19T10:15:42;27.50;79.50
56424;DHT22;42329;43.516;3.684;2022-08-19T10:18:09;27.50;77.80
56424;DHT22;42329;43.516;3.684;2022-08-19T10:20:36;27.60;77.00
56424;DHT22;42329;43.516;3.684;2022-08-19T10:23:03;27.60;78.60
56424;DHT22;42329;43.516;3.684;2022-08-19T10:25:33;27.70;77.60
56424;DHT22;42329;43.516;3.684;2022-08-19T10:28:00;27.80;78.40
56424;DHT22;42329;43.516;3.684;2022-08-19T10:30:27;27.80;76.60
56424;DHT22;42329;43.516;3.684;2022-08-19T10:32:54;27.80;78.10
56424;DHT22;42329;43.516;3.684;2022-08-19T10:35:21;27.80;78.40
56424;DHT22;42329;43.516;3.684;2022-08-19T10:37:51;27.90;77.10
56424;DHT22;42329;43.516;3.684;2022-08-19T10:40:18;28.00;77.50
56424;DHT22;42329;43.516;3.684;2022-08-19T10:42:47;28.00;76.30
56424;DHT22;42329;43.516;3.684;2022-08-19T10:45:15;28.10;77.40
56424;DHT22;42329;43.516;3.684;2022-08-19T10:47:42;28.10;75.80
56424;DHT22;42329;43.516;3.684;2022-08-19T10:50:09;28.10;75.10
56424;DHT22;42329;43.516;3.684;2022-08-19T10:52:53;28.20;75.70
56424;DHT22;42329;43.516;3.684;2022-08-19T10:55:21;28.20;74.80
56424;DHT22;42329;43.516;3.684;2022-08-19T10:58:13;28.20;75.30
56424;DHT22;42329;43.516;3.684;2022-08-19T11:00:40;28.30;75.30
56424;DHT22;42329;43.516;3.684;2022-08-19T11:03:08;28.30;75.10
56424;DHT22;42329;43.516;3.684;2022-08-19T11:05:35;28.30;75.40
56424;DHT22;42329;43.516;3.684;2022-08-19T11:08:03;28.40;75.10
56424;DHT22;42329;43.516;3.684;2022-08-19T11:10:30;28.40;75.00
56424;DHT22;42329;43.516;3.684;2022-08-19T11:12:57;28.40;73.90
56424;DHT22;42329;43.516;3.684;2022-08-19T11:15:27;28.50;73.80
56424;DHT22;42329;43.516;3.684;2022-08-19T11:17:54;28.40;75.30
56424;DHT22;42329;43.516;3.684;2022-08-19T11:20:21;28.40;74.40
56424;DHT22;42329;43.516;3.684;2022-08-19T11:22:50;28.50;74.40
56424;DHT22;42329;43.516;3.684;2022-08-19T11:25:17;28.50;74.30
56424;DHT22;42329;43.516;3.684;2022-08-19T11:27:44;28.60;74.50
56424;DHT22;42329;43.516;3.684;2022-08-19T11:30:16;28.60;73.30
56424;DHT22;42329;43.516;3.684;2022-08-19T11:32:45;28.60;73.60
56424;DHT22;42329;43.516;3.684;2022-08-19T11:35:13;28.60;74.80
56424;DHT22;42329;43.516;3.684;2022-08-19T11:37:40;28.60;74.00
56424;DHT22;42329;43.516;3.684;2022-08-19T11:40:07;28.60;73.00
56424;DHT22;42329;43.516;3.684;2022-08-19T11:42:35;28.70;73.40
56424;DHT22;42329;43.516;3.684;2022-08-19T11:45:19;28.80;73.10
56424;DHT22;42329;43.516;3.684;2022-08-19T11:47:47;28.80;74.10
56424;DHT22;42329;43.516;3.684;2022-08-19T11:50:14;28.80;73.30
56424;DHT22;42329;43.516;3.684;2022-08-19T11:52:42;28.80;72.40
56424;DHT22;42329;43.516;3.684;2022-08-19T11:55:10;28.90;73.30
56424;DHT22;42329;43.516;3.684;2022-08-19T11:57:37;28.90;73.20
56424;DHT22;42329;43.516;3.684;2022-08-19T12:00:06;28.90;73.30
56424;DHT22;42329;43.516;3.684;2022-08-19T12:02:34;28.90;73.80
56424;DHT22;42329;43.516;3.684;2022-08-19T12:05:03;29.00;73.50
56424;DHT22;42329;43.516;3.684;2022-08-19T12:07:30;29.10;71.20
56424;DHT22;42329;43.516;3.684;2022-08-19T12:09:58;29.10;72.80
56424;DHT22;42329;43.516;3.684;2022-08-19T12:12:25;29.10;73.70
56424;DHT22;42329;43.516;3.684;2022-08-19T12:14:52;29.10;71.40
56424;DHT22;42329;43.516;3.684;2022-08-19T12:17:23;29.10;71.30
56424;DHT22;42329;43.516;3.684;2022-08-19T12:19:51;29.10;71.70
56424;DHT22;42329;43.516;3.684;2022-08-19T12:22:19;29.10;72.40
56424;DHT22;42329;43.516;3.684;2022-08-19T12:24:46;29.10;71.80
56424;DHT22;42329;43.516;3.684;2022-08-19T12:27:15;29.20;71.40
56424;DHT22;42329;43.516;3.684;2022-08-19T12:29:42;29.20;72.60
56424;DHT22;42329;43.516;3.684;2022-08-19T12:32:09;29.30;71.40
56424;DHT22;42329;43.516;3.684;2022-08-19T12:34:36;29.30;71.80
56424;DHT22;42329;43.516;3.684;2022-08-19T12:37:04;29.30;71.90
56424;DHT22;42329;43.516;3.684;2022-08-19T12:39:35;29.30;71.50
56424;DHT22;42329;43.516;3.684;2022-08-19T12:42:02;29.40;72.00
56424;DHT22;42329;43.516;3.684;2022-08-19T12:44:29;29.40;72.10
56424;DHT22;42329;43.516;3.684;2022-08-19T12:46:57;29.40;70.70
56424;DHT22;42329;43.516;3.684;2022-08-19T12:49:24;29.40;70.60
56424;DHT22;42329;43.516;3.684;2022-08-19T12:51:51;29.50;70.60
56424;DHT22;42329;43.516;3.684;2022-08-19T12:54:18;29.50;71.20
56424;DHT22;42329;43.516;3.684;2022-08-19T12:56:47;29.40;70.30
56424;DHT22;42329;43.516;3.684;2022-08-19T12:59:14;29.30;70.00
56424;DHT22;42329;43.516;3.684;2022-08-19T13:01:42;29.20;70.20
56424;DHT22;42329;43.516;3.684;2022-08-19T13:04:09;29.20;69.50
56424;DHT22;42329;43.516;3.684;2022-08-19T13:06:37;29.10;69.90
56424;DHT22;42329;43.516;3.684;2022-08-19T13:09:04;29.10;69.80
56424;DHT22;42329;43.516;3.684;2022-08-19T13:11:31;29.00;69.30
56424;DHT22;42329;43.516;3.684;2022-08-19T13:14:01;29.00;69.00
56424;DHT22;42329;43.516;3.684;2022-08-19T13:16:29;28.90;68.90
56424;DHT22;42329;43.516;3.684;2022-08-19T13:18:57;28.90;69.10
56424;DHT22;42329;43.516;3.684;2022-08-19T13:21:24;28.90;69.60
56424;DHT22;42329;43.516;3.684;2022-08-19T13:23:52;28.90;69.90
56424;DHT22;42329;43.516;3.684;2022-08-19T13:26:20;29.10;70.20
56424;DHT22;42329;43.516;3.684;2022-08-19T13:28:47;29.20;70.90
56424;DHT22;42329;43.516;3.684;2022-08-19T13:31:34;29.30;71.20
56424;DHT22;42329;43.516;3.684;2022-08-19T13:34:18;29.20;70.50
56424;DHT22;42329;43.516;3.684;2022-08-19T13:36:46;29.10;69.30
56424;DHT22;42329;43.516;3.684;2022-08-19T13:39:13;29.20;70.00
56424;DHT22;42329;43.516;3.684;2022-08-19T13:41:43;29.20;69.80
56424;DHT22;42329;43.516;3.684;2022-08-19T13:44:13;29.20;69.60
56424;DHT22;42329;43.516;3.684;2022-08-19T13:46:41;29.10;69.80
56424;DHT22;42329;43.516;3.684;2022-08-19T13:49:10;29.10;70.40
56424;DHT22;42329;43.516;3.684;2022-08-19T13:51:37;29.10;70.50
56424;DHT22;42329;43.516;3.684;2022-08-19T13:54:04;29.10;70.30
56424;DHT22;42329;43.516;3.684;2022-08-19T13:56:31;29.10;69.70
56424;DHT22;42329;43.516;3.684;2022-08-19T13:58:58;29.20;70.30
56424;DHT22;42329;43.516;3.684;2022-08-19T14:01:25;29.20;69.70
56424;DHT22;42329;43.516;3.684;2022-08-19T14:03:54;29.10;69.50
56424;DHT22;42329;43.516;3.684;2022-08-19T14:06:21;29.10;69.60
56424;DHT22;42329;43.516;3.684;2022-08-19T14:08:48;29.30;68.90
56424;DHT22;42329;43.516;3.684;2022-08-19T14:11:15;29.40;68.90
56424;DHT22;42329;43.516;3.684;2022-08-19T14:13:42;29.50;68.80
56424;DHT22;42329;43.516;3.684;2022-08-19T14:16:09;29.50;69.70
56424;DHT22;42329;43.516;3.684;2022-08-19T14:18:37;29.60;69.80
56424;DHT22;42329;43.516;3.684;2022-08-19T14:21:06;29.60;69.20
56424;DHT22;42329;43.516;3.684;2022-08-19T14:23:33;29.60;68.90
56424;DHT22;42329;43.516;3.684;2022-08-19T14:26:04;29.60;68.80
56424;DHT22;42329;43.516;3.684;2022-08-19T14:28:32;29.70;69.70
56424;DHT22;42329;43.516;3.684;2022-08-19T14:30:59;29.70;70.80
56424;DHT22;42329;43.516;3.684;2022-08-19T14:33:26;29.70;70.10
56424;DHT22;42329;43.516;3.684;2022-08-19T14:35:52;29.80;69.90
56424;DHT22;42329;43.516;3.684;2022-08-19T14:38:21;29.70;69.80
56424;DHT22;42329;43.516;3.684;2022-08-19T14:40:48;29.70;68.80
56424;DHT22;42329;43.516;3.684;2022-08-19T14:43:17;29.70;69.30
56424;DHT22;42329;43.516;3.684;2022-08-19T14:45:44;29.70;68.80
56424;DHT22;42329;43.516;3.684;2022-08-19T14:48:11;29.70;69.00
56424;DHT22;42329;43.516;3.684;2022-08-19T14:50:38;29.80;69.90
56424;DHT22;42329;43.516;3.684;2022-08-19T14:53:06;29.80;70.00
56424;DHT22;42329;43.516;3.684;2022-08-19T14:55:35;29.80;70.70
56424;DHT22;42329;43.516;3.684;2022-08-19T14:58:02;29.70;70.80
56424;DHT22;42329;43.516;3.684;2022-08-19T15:00:29;29.70;71.20
56424;DHT22;42329;43.516;3.684;2022-08-19T15:02:56;29.70;70.50
56424;DHT22;42329;43.516;3.684;2022-08-19T15:05:24;29.70;71.00
56424;DHT22;42329;43.516;3.684;2022-08-19T15:07:52;29.70;70.90
56424;DHT22;42329;43.516;3.684;2022-08-19T15:10:22;29.70;70.60
56424;DHT22;42329;43.516;3.684;2022-08-19T15:12:51;29.70;71.50
56424;DHT22;42329;43.516;3.684;2022-08-19T15:15:19;29.70;71.10
56424;DHT22;42329;43.516;3.684;2022-08-19T15:17:48;29.60;71.10
56424;DHT22;42329;43.516;3.684;2022-08-19T15:20:16;29.60;70.90
56424;DHT22;42329;43.516;3.684;2022-08-19T15:22:43;29.60;70.80
56424;DHT22;42329;43.516;3.684;2022-08-19T15:25:12;29.50;70.60
56424;DHT22;42329;43.516;3.684;2022-08-19T15:27:39;29.50;70.60
56424;DHT22;42329;43.516;3.684;2022-08-19T15:30:09;29.50;70.40
56424;DHT22;42329;43.516;3.684;2022-08-19T15:32:37;29.50;71.10
56424;DHT22;42329;43.516;3.684;2022-08-19T15:35:04;29.50;71.80
56424;DHT22;42329;43.516;3.684;2022-08-19T15:37:32;29.50;71.60
56424;DHT22;42329;43.516;3.684;2022-08-19T15:39:59;29.50;71.10